Time;durP1;ratioP1;P1;durP2;ratioP2;P2;SDS_P1;SDS_P2;PMS_P1;PMS_P2;Temp;Humidity;BMP_temperature;BMP_pressure;BME280_temperature;BME280_humidity;BME280_pressure;Samples;Min_cycle;Max_cycle;Signal;HPM_P1;HPM_P2
2023/12/14 00:03:49;;;;;;;1999.90;999.90;;;;;;;12.63;72.23;100736.81;10381232;28;20057;-67
2023/12/14 00:08:51;;;;;;;1999.90;999.90;;;;;;;13.32;73.05;100759.38;10381377;28;20180;-67
2023/12/14 00:13:53;;;;;;;1999.90;999.90;;;;;;;13.09;71.38;100769.66;10379728;28;20053;-67
2023/12/14 00:18:56;;;;;;;1999.90;999.90;;;;;;;13.28;69.80;100769.25;10380564;28;20490;-68
2023/12/14 00:23:58;;;;;;;1999.90;999.90;;;;;;;13.24;69.64;100785.34;10380523;28;20058;-67
2023/12/14 00:29:00;;;;;;;1999.90;999.90;;;;;;;12.91;71.89;100797.19;10380287;28;20132;-67
2023/12/14 00:34:04;;;;;;;1999.90;999.90;;;;;;;12.70;71.87;100808.19;10380310;28;20050;-67
2023/12/14 00:39:06;;;;;;;1999.90;999.90;;;;;;;12.38;75.15;100819.00;10378634;28;20054;-67
2023/12/14 00:44:08;;;;;;;1999.90;999.90;;;;;;;12.51;74.91;100826.94;10379955;28;20054;-68
2023/12/14 00:49:11;;;;;;;1999.90;999.90;;;;;;;12.80;72.54;100837.31;10379567;28;20084;-67
2023/12/14 00:54:13;;;;;;;1999.90;999.90;;;;;;;12.11;76.16;100849.66;10378833;28;20065;-67
2023/12/14 00:59:15;;;;;;;1999.90;999.90;;;;;;;12.07;73.50;100857.72;10394460;28;20049;-67
2023/12/14 01:04:18;;;;;;;1999.90;999.90;;;;;;;11.80;75.09;100872.50;10378976;28;20077;-67
2023/12/14 01:09:20;;;;;;;1999.90;999.90;;;;;;;12.53;73.09;100882.81;10377760;28;20046;-67
2023/12/14 01:14:23;;;;;;;1999.90;999.90;;;;;;;12.36;73.37;100880.44;10378547;28;20045;-67
2023/12/14 01:19:25;;;;;;;1999.90;999.90;;;;;;;12.19;73.53;100894.63;10378458;28;20078;-67
2023/12/14 01:24:28;;;;;;;1999.90;999.90;;;;;;;12.01;74.02;100907.94;10376993;28;20054;-67
2023/12/14 01:29:30;;;;;;;1999.90;999.90;;;;;;;11.26;77.23;100908.06;10377035;28;20056;-67
2023/12/14 01:34:32;;;;;;;1999.90;999.90;;;;;;;12.23;75.30;100909.25;10377834;28;20061;-67
2023/12/14 01:39:35;;;;;;;1999.90;999.90;;;;;;;13.02;70.36;100916.41;10376341;28;20124;-67
2023/12/14 01:44:37;;;;;;;1999.90;999.90;;;;;;;11.51;76.01;100935.41;10377338;28;20132;-67
2023/12/14 01:49:41;;;;;;;1999.90;999.90;;;;;;;11.90;75.04;100947.09;10376015;28;20124;-67
2023/12/14 01:54:43;;;;;;;1999.90;999.90;;;;;;;11.61;75.32;100954.91;10375724;28;20382;-67
2023/12/14 01:59:46;;;;;;;1999.90;999.90;;;;;;;12.08;74.60;100972.22;10376810;28;20042;-66
2023/12/14 02:04:48;;;;;;;1999.90;999.90;;;;;;;12.18;72.62;100985.66;10375679;28;20046;-67
2023/12/14 02:09:50;;;;;;;1999.90;999.90;;;;;;;12.18;72.51;100995.31;10376354;28;20073;-67
2023/12/14 02:14:53;;;;;;;1999.90;999.90;;;;;;;11.58;73.67;100994.44;10376214;28;20057;-67
2023/12/14 02:19:56;;;;;;;1999.90;999.90;;;;;;;11.79;72.82;100999.38;10374768;28;20046;-67
2023/12/14 02:24:59;;;;;;;1999.90;999.90;;;;;;;12.11;72.35;100996.63;10376090;28;20078;-66
2023/12/14 02:30:01;;;;;;;1999.90;999.90;;;;;;;12.17;70.67;101014.59;10375998;28;20056;-67
2023/12/14 02:35:04;;;;;;;1999.90;999.90;;;;;;;11.89;71.68;101017.09;10375567;28;20475;-67
2023/12/14 02:40:08;;;;;;;1999.90;999.90;;;;;;;11.70;73.33;101027.81;10373957;28;20473;-67
2023/12/14 02:45:10;;;;;;;1999.90;999.90;;;;;;;12.14;71.33;101039.28;10374231;28;20081;-67
2023/12/14 02:50:13;;;;;;;1999.90;999.90;;;;;;;11.86;71.87;101034.78;10373885;28;20125;-67
2023/12/14 02:55:15;;;;;;;1999.90;999.90;;;;;;;12.44;70.75;101044.44;10373618;28;20085;-67
2023/12/14 03:00:18;;;;;;;1999.90;999.90;;;;;;;12.26;69.76;101056.91;10374712;28;20065;-67
2023/12/14 03:05:20;;;;;;;1999.90;999.90;;;;;;;11.78;71.55;101074.56;10373527;28;20057;-67
2023/12/14 03:10:22;;;;;;;1999.90;999.90;;;;;;;12.13;70.34;101071.69;10374718;28;20045;-67
2023/12/14 03:15:25;;;;;;;1999.90;999.90;;;;;;;12.30;70.02;101086.44;10374314;28;20050;-67
2023/12/14 03:20:27;;;;;;;1999.90;999.90;;;;;;;12.51;70.32;101092.19;10374238;28;20095;-67
2023/12/14 03:25:29;;;;;;;1999.90;999.90;;;;;;;11.85;71.75;101093.44;10374205;28;20129;-67
2023/12/14 03:30:32;;;;;;;1999.90;999.90;;;;;;;11.88;71.98;101096.75;10374375;28;20073;-66
2023/12/14 03:35:34;;;;;;;1999.90;999.90;;;;;;;11.67;72.04;101103.22;10374119;28;20053;-67
2023/12/14 03:40:36;;;;;;;1999.90;999.90;;;;;;;11.50;72.57;101096.31;10372698;28;20070;-67
2023/12/14 03:45:39;;;;;;;1999.90;999.90;;;;;;;11.34;72.86;101106.81;10372637;28;20453;-67
2023/12/14 03:50:41;;;;;;;1999.90;999.90;;;;;;;12.04;69.39;101117.72;10372545;28;20060;-67
2023/12/14 03:55:43;;;;;;;1999.90;999.90;;;;;;;11.51;72.28;101127.66;10372402;28;20057;-67
2023/12/14 04:00:46;;;;;;;1999.90;999.90;;;;;;;12.38;68.51;101128.00;10373521;28;20042;-67
2023/12/14 04:05:48;;;;;;;1999.90;999.90;;;;;;;12.00;68.74;101139.81;10373388;28;20060;-67
2023/12/14 04:10:51;;;;;;;1999.90;999.90;;;;;;;12.39;69.38;101140.19;10372343;28;20046;-67
2023/12/14 04:15:53;;;;;;;1999.90;999.90;;;;;;;12.21;68.96;101139.50;10373287;28;20053;-67
2023/12/14 04:20:56;;;;;;;1999.90;999.90;;;;;;;11.55;69.28;101149.34;10373370;28;20049;-67
2023/12/14 04:25:58;;;;;;;1999.90;999.90;;;;;;;12.43;68.26;101157.44;10372494;28;20061;-67
2023/12/14 04:31:00;;;;;;;1999.90;999.90;;;;;;;12.02;68.44;101163.34;10380548;28;20053;-67
2023/12/14 04:36:03;;;;;;;1999.90;999.90;;;;;;;12.62;68.85;101167.69;10380075;28;20449;-67
2023/12/14 04:41:06;;;;;;;1999.90;999.90;;;;;;;12.63;66.69;101166.78;10379772;28;20420;-67
2023/12/14 04:46:08;;;;;;;1999.90;999.90;;;;;;;12.47;67.60;101177.34;10379732;28;20481;-67
2023/12/14 04:51:14;;;;;;;1999.90;999.90;;;;;;;12.60;66.98;101186.16;10379564;28;20094;-67
2023/12/14 04:56:16;;;;;;;1999.90;999.90;;;;;;;12.54;66.37;101196.19;10379393;28;20088;-67
2023/12/14 05:01:18;;;;;;;1999.90;999.90;;;;;;;12.42;66.89;101214.38;10379146;28;20046;-67
2023/12/14 05:06:21;;;;;;;1999.90;999.90;;;;;;;12.77;65.42;101231.63;10379188;28;20053;-67
2023/12/14 05:11:24;;;;;;;1999.90;999.90;;;;;;;12.15;67.25;101244.84;10378893;28;20054;-67
2023/12/14 05:16:27;;;;;;;1999.90;999.90;;;;;;;11.88;68.28;101254.16;10378597;28;20049;-66
2023/12/14 05:21:29;;;;;;;1999.90;999.90;;;;;;;12.50;66.72;101255.09;10378560;28;20078;-67
2023/12/14 05:26:31;;;;;;;1999.90;999.90;;;;;;;12.76;66.82;101267.56;10378157;28;20053;-67
2023/12/14 05:31:34;;;;;;;1999.90;999.90;;;;;;;12.57;66.13;101272.19;10377914;28;20461;-67
2023/12/14 05:36:36;;;;;;;1999.90;999.90;;;;;;;11.56;67.06;101291.78;10377714;28;20125;-69
2023/12/14 05:41:42;;;;;;;1999.90;999.90;;;;;;;11.76;68.86;101309.06;10376471;28;20052;-67
2023/12/14 05:46:44;;;;;;;1999.90;999.90;;;;;;;12.13;66.92;101307.94;10377508;28;20127;-67
2023/12/14 05:51:46;;;;;;;1999.90;999.90;;;;;;;12.41;66.88;101322.13;10376902;28;20490;-67
2023/12/14 05:56:49;;;;;;;1999.90;999.90;;;;;;;12.62;65.91;101331.44;10377167;28;20045;-67
2023/12/14 06:01:57;;;;;;;1999.90;999.90;;;;;;;12.13;66.86;101347.28;10376666;28;20577;-66
2023/12/14 06:07:00;;;;;;;1999.90;999.90;;;;;;;12.03;68.67;101352.19;10375705;28;20041;-67
2023/12/14 06:12:03;;;;;;;1999.90;999.90;;;;;;;12.31;68.22;101362.97;10359191;28;20077;-67
2023/12/14 06:17:06;;;;;;;1999.90;999.90;;;;;;;12.57;66.26;101370.22;10376079;28;20045;-67
2023/12/14 06:22:08;;;;;;;1999.90;999.90;;;;;;;11.92;67.43;101378.19;10376125;28;20058;-67
2023/12/14 06:27:11;;;;;;;1999.90;999.90;;;;;;;12.20;66.60;101393.28;10358676;28;20049;-67
2023/12/14 06:32:13;;;;;;;1999.90;999.90;;;;;;;11.87;67.04;101396.78;10374562;28;20408;-67
2023/12/14 06:37:16;;;;;;;1999.90;999.90;;;;;;;12.34;65.69;101400.41;10375387;28;20104;-67
2023/12/14 06:42:18;;;;;;;1999.90;999.90;;;;;;;12.54;66.29;101408.94;10374428;28;20056;-67
2023/12/14 06:47:20;;;;;;;1999.90;999.90;;;;;;;12.30;67.33;101419.03;10373921;28;20133;-67
2023/12/14 06:52:23;;;;;;;1999.90;999.90;;;;;;;11.80;68.10;101426.03;10373128;28;20543;-67
2023/12/14 06:57:26;;;;;;;1999.90;999.90;;;;;;;12.15;67.72;101429.44;10375009;28;20049;-67
2023/12/14 07:02:29;;;;;;;1999.90;999.90;;;;;;;12.05;66.92;101431.72;10374785;28;20130;-67
2023/12/14 07:07:31;;;;;;;1999.90;999.90;;;;;;;12.34;66.57;101436.31;10412314;22;20591;-61
2023/12/14 07:12:33;;;;;;;1999.90;999.90;;;;;;;12.27;66.72;101441.03;10456697;28;20049;-61
2023/12/14 07:17:36;;;;;;;1999.90;999.90;;;;;;;12.60;65.66;101463.78;10456369;28;20053;-61
2023/12/14 07:22:39;;;;;;;1999.90;999.90;;;;;;;12.10;66.50;101480.47;10456518;28;20056;-61
2023/12/14 07:27:41;;;;;;;1999.90;999.90;;;;;;;11.88;66.98;101497.31;10455003;28;20393;-61
2023/12/14 07:32:43;;;;;;;1999.90;999.90;;;;;;;11.78;67.42;101499.56;10456378;28;20045;-61
2023/12/14 07:37:46;;;;;;;1999.90;999.90;;;;;;;11.56;68.79;101494.56;10454648;28;20045;-61
2023/12/14 07:42:48;;;;;;;1999.90;999.90;;;;;;;11.67;68.11;101501.91;10456155;28;20049;-61
2023/12/14 07:47:50;;;;;;;1999.90;999.90;;;;;;;11.31;69.02;101521.16;10456017;28;20053;-61
2023/12/14 07:52:53;;;;;;;1999.90;999.90;;;;;;;11.04;69.09;101532.03;10455624;28;20538;-61
2023/12/14 07:57:56;;;;;;;1999.90;999.90;;;;;;;11.24;69.13;101532.88;10455534;28;20049;-61
2023/12/14 08:02:58;;;;;;;1999.90;999.90;;;;;;;10.95;69.13;101548.22;10459444;28;20059;-61
2023/12/14 08:08:00;;;;;;;1999.90;999.90;;;;;;;11.99;66.42;101554.53;10463325;28;20085;-61
2023/12/14 08:13:03;;;;;;;1999.90;999.90;;;;;;;11.99;65.46;101579.00;10463248;28;20045;-61
2023/12/14 08:18:05;;;;;;;1999.90;999.90;;;;;;;11.02;67.94;101585.47;10463004;28;20045;-61
2023/12/14 08:23:08;;;;;;;1999.90;999.90;;;;;;;10.84;69.04;101593.22;10462931;28;20087;-61
2023/12/14 08:28:10;;;;;;;1999.90;999.90;;;;;;;11.15;67.42;101602.31;10461474;28;20408;-61
2023/12/14 08:33:12;;;;;;;1999.90;999.90;;;;;;;11.58;65.69;101605.47;10462620;28;20132;-60
2023/12/14 08:38:15;;;;;;;1999.90;999.90;;;;;;;11.14;68.02;101617.16;10462167;28;20079;-61
2023/12/14 08:43:17;;;;;;;1999.90;999.90;;;;;;;11.40;66.39;101622.09;10462224;28;20131;-65
2023/12/14 08:48:20;;;;;;;1999.90;999.90;;;;;;;10.26;67.57;101635.06;10460861;28;20120;-61
2023/12/14 08:53:22;;;;;;;1999.90;999.90;;;;;;;10.86;66.31;101645.56;10461605;28;20049;-61
2023/12/14 08:58:25;;;;;;;1999.90;999.90;;;;;;;11.18;66.86;101658.97;10461509;28;20056;-62
2023/12/14 09:03:27;;;;;;;1999.90;999.90;;;;;;;10.66;67.48;101662.16;10461234;28;20407;-61
2023/12/14 09:08:30;;;;;;;1999.90;999.90;;;;;;;10.96;66.55;101673.03;10460087;28;20056;-62
2023/12/14 09:13:32;;;;;;;1999.90;999.90;;;;;;;11.48;64.94;101673.28;10460593;28;20049;-62
2023/12/14 09:18:35;;;;;;;1999.90;999.90;;;;;;;11.87;63.69;101687.19;10460648;28;20056;-62
2023/12/14 09:23:37;;;;;;;1999.90;999.90;;;;;;;12.02;64.07;101688.22;10460625;28;20091;-61
2023/12/14 09:28:40;;;;;;;1999.90;999.90;;;;;;;11.68;63.81;101679.34;10460269;28;20523;-61
2023/12/14 09:33:43;;;;;;;1999.90;999.90;;;;;;;11.73;62.91;101700.09;10460288;28;20056;-61
2023/12/14 09:38:45;;;;;;;1999.90;999.90;;;;;;;11.67;65.45;101711.75;10460103;28;20049;-61
2023/12/14 09:43:48;;;;;;;1999.90;999.90;;;;;;;11.48;64.61;101715.25;10458821;28;20053;-61
2023/12/14 09:48:51;;;;;;;1999.90;999.90;;;;;;;11.93;63.96;101725.41;10459733;28;20129;-61
2023/12/14 09:53:57;;;;;;;1999.90;999.90;;;;;;;11.33;64.94;101727.28;10458101;28;20048;-61
2023/12/14 09:59:02;;;;;;;1999.90;999.90;;;;;;;11.37;65.41;101741.09;10459288;28;20127;-62
2023/12/14 10:04:15;;;;;;;1999.90;999.90;;;;;;;11.93;64.06;101749.03;10459453;28;20393;-61
2023/12/14 10:09:23;;;;;;;1999.90;999.90;;;;;;;11.76;64.61;101749.81;10458786;28;20045;-61
2023/12/14 10:14:26;;;;;;;1999.90;999.90;;;;;;;11.66;64.04;101759.88;10457496;28;20091;-61
2023/12/14 10:19:28;;;;;;;1999.90;999.90;;;;;;;11.90;64.27;101773.59;10458139;28;20041;-61
2023/12/14 10:24:33;;;;;;;1999.90;999.90;;;;;;;11.56;66.11;101782.22;10457294;28;20056;-61
2023/12/14 10:29:37;;;;;;;1999.90;999.90;;;;;;;11.72;64.89;101785.84;10457867;28;20076;-61
2023/12/14 10:34:40;;;;;;;1999.90;999.90;;;;;;;11.84;63.70;101785.25;10456551;28;20401;-62
2023/12/14 10:39:43;;;;;;;1999.90;999.90;;;;;;;11.90;63.84;101789.34;10456336;28;20041;-61
2023/12/14 10:44:50;;;;;;;1999.90;999.90;;;;;;;11.55;64.85;101798.84;10457342;28;20053;-62
2023/12/14 10:50:13;;;;;;;1999.90;999.90;;;;;;;11.57;64.95;101811.00;10456184;28;20376;-62
2023/12/14 10:55:38;;;;;;;1999.90;999.90;;;;;;;11.56;66.16;101818.94;10457313;28;20073;-62
2023/12/14 11:00:43;;;;;;;1999.90;999.90;;;;;;;11.59;63.80;101816.16;10455725;28;20103;-62
2023/12/14 11:05:45;;;;;;;1999.90;999.90;;;;;;;12.04;64.57;101812.38;10456882;28;20045;-62
2023/12/14 11:11:00;;;;;;;1999.90;999.90;;;;;;;11.93;65.14;101812.03;10456518;28;20064;-62
2023/12/14 11:16:02;;;;;;;1999.90;999.90;;;;;;;11.15;64.14;101812.84;10455325;28;20048;-62
2023/12/14 11:21:06;;;;;;;1999.90;999.90;;;;;;;11.92;64.03;101811.19;10455208;28;20051;-61
2023/12/14 11:26:10;;;;;;;1999.90;999.90;;;;;;;12.03;64.42;101829.03;10456465;28;20049;-61
2023/12/14 11:31:13;;;;;;;1999.90;999.90;;;;;;;11.63;65.15;101838.72;10456283;28;20045;-62
2023/12/14 11:36:15;;;;;;;1999.90;999.90;;;;;;;11.79;64.20;101849.38;10459083;28;20055;-62
2023/12/14 11:41:19;;;;;;;1999.90;999.90;;;;;;;11.69;64.01;101843.69;10463419;28;20128;-62
2023/12/14 11:46:21;;;;;;;1999.90;999.90;;;;;;;12.04;64.03;101852.59;10464350;28;20400;-61
2023/12/14 11:51:29;;;;;;;1999.90;999.90;;;;;;;12.39;63.06;101851.81;10464282;28;20059;-61
2023/12/14 11:56:34;;;;;;;1999.90;999.90;;;;;;;11.77;64.72;101861.69;10463822;28;20483;-61
2023/12/14 12:01:38;;;;;;;1999.90;999.90;;;;;;;11.99;63.87;101862.44;10463715;28;20049;-61
2023/12/14 12:06:41;;;;;;;1999.90;999.90;;;;;;;12.08;62.77;101869.03;10462150;28;20496;-61
2023/12/14 12:11:43;;;;;;;1999.90;999.90;;;;;;;11.18;65.55;101879.13;10463276;28;20049;-61
2023/12/14 12:16:46;;;;;;;1999.90;999.90;;;;;;;11.48;64.64;101867.34;10463295;28;20048;-62
2023/12/14 12:21:48;;;;;;;1999.90;999.90;;;;;;;12.25;62.62;101853.38;10463020;28;20045;-61
2023/12/14 12:26:50;;;;;;;1999.90;999.90;;;;;;;12.64;62.27;101868.13;10463185;28;20049;-62
2023/12/14 12:31:53;;;;;;;1999.90;999.90;;;;;;;12.37;61.77;101875.56;10462783;28;20048;-62
2023/12/14 12:36:57;;;;;;;1999.90;999.90;;;;;;;12.30;62.08;101875.91;10462610;28;20060;-62
2023/12/14 12:42:00;;;;;;;1999.90;999.90;;;;;;;12.50;62.44;101881.06;10462208;28;20053;-62
2023/12/14 12:47:02;;;;;;;1999.90;999.90;;;;;;;11.97;62.59;101879.19;10459943;28;20049;-62
2023/12/14 12:52:12;;;;;;;1999.90;999.90;;;;;;;12.02;63.21;101878.06;10462014;28;20053;-62
2023/12/14 12:57:14;;;;;;;1999.90;999.90;;;;;;;11.90;62.08;101882.06;10461586;28;20063;-61
2023/12/14 13:02:18;;;;;;;1999.90;999.90;;;;;;;12.45;63.52;101896.19;10461277;28;20395;-61
2023/12/14 13:07:20;;;;;;;1999.90;999.90;;;;;;;12.91;61.16;101908.84;10460944;28;20075;-62
2023/12/14 13:12:23;;;;;;;1999.90;999.90;;;;;;;12.47;62.35;101909.25;10461238;28;20048;-62
2023/12/14 13:17:25;;;;;;;1999.90;999.90;;;;;;;12.78;61.35;101919.97;10460734;28;20526;-62
2023/12/14 13:22:27;;;;;;;1999.90;999.90;;;;;;;12.38;62.55;101921.88;10443007;28;20076;-61
2023/12/14 13:27:32;;;;;;;1999.90;999.90;;;;;;;11.99;62.57;101924.59;10460384;28;20057;-62
2023/12/14 13:32:35;;;;;;;1999.90;999.90;;;;;;;12.63;61.51;101924.19;10458930;28;20059;-62
2023/12/14 13:37:38;;;;;;;1999.90;999.90;;;;;;;12.62;60.97;101927.78;10460125;28;20052;-62
2023/12/14 13:42:41;;;;;;;1999.90;999.90;;;;;;;12.61;61.12;101928.69;10459908;28;20076;-62
2023/12/14 13:48:00;;;;;;;1999.90;999.90;;;;;;;11.71;63.45;101958.13;10459499;28;20068;-62
2023/12/14 13:53:04;;;;;;;1999.90;999.90;;;;;;;12.30;62.69;101962.56;10459391;28;20049;-62
2023/12/14 13:58:07;;;;;;;1999.90;999.90;;;;;;;12.56;62.36;101966.63;10457768;28;20099;-62
2023/12/14 14:03:09;;;;;;;1999.90;999.90;;;;;;;12.20;61.86;101975.25;10458597;28;20148;-62
2023/12/14 14:08:12;;;;;;;1999.90;999.90;;;;;;;12.41;61.89;101987.41;10457538;28;20104;-61
2023/12/14 14:13:21;;;;;;;1999.90;999.90;;;;;;;12.51;61.20;101987.84;10458852;28;20052;-61
2023/12/14 14:18:23;;;;;;;1999.90;999.90;;;;;;;12.14;61.54;101988.66;10458372;28;20045;-61
2023/12/14 14:23:26;;;;;;;1999.90;999.90;;;;;;;12.07;61.00;101995.97;10457380;28;20045;-62
2023/12/14 14:28:29;;;;;;;1999.90;999.90;;;;;;;12.85;61.42;102009.91;10440330;28;20542;-62
2023/12/14 14:33:31;;;;;;;1999.90;999.90;;;;;;;12.38;61.05;102021.69;10457700;28;20480;-62
2023/12/14 14:38:33;;;;;;;1999.90;999.90;;;;;;;12.38;61.60;102031.34;10457741;28;20045;-62
2023/12/14 14:43:36;;;;;;;1999.90;999.90;;;;;;;12.20;61.85;102041.75;10456375;28;20124;-62
2023/12/14 14:48:38;;;;;;;1999.90;999.90;;;;;;;12.49;61.63;102042.22;10457596;28;20041;-62
2023/12/14 14:53:44;;;;;;;1999.90;999.90;;;;;;;12.69;60.75;102049.16;10457125;28;20124;-62
2023/12/14 14:58:46;;;;;;;1999.90;999.90;;;;;;;12.68;61.41;102065.88;10457418;28;20057;-62
2023/12/14 15:03:49;;;;;;;1999.90;999.90;;;;;;;12.79;60.52;102076.75;10456734;28;20408;-61
2023/12/14 15:08:52;;;;;;;1999.90;999.90;;;;;;;12.30;60.60;102092.09;10456724;28;20404;-62
2023/12/14 15:13:54;;;;;;;1999.90;999.90;;;;;;;12.18;61.64;102096.09;10456386;28;20045;-62
2023/12/14 15:18:56;;;;;;;1999.90;999.90;;;;;;;12.01;62.04;102096.00;10456282;28;20052;-62
2023/12/14 15:23:59;;;;;;;1999.90;999.90;;;;;;;11.29;63.36;102102.38;10456300;28;20415;-62
2023/12/14 15:29:01;;;;;;;1999.90;999.90;;;;;;;11.89;62.41;102113.91;10456759;28;20041;-62
2023/12/14 15:34:06;;;;;;;1999.90;999.90;;;;;;;12.10;62.31;102126.22;10456289;28;20099;-61
2023/12/14 15:39:09;;;;;;;1999.90;999.90;;;;;;;12.18;62.00;102130.22;10456137;28;20076;-62
2023/12/14 15:44:11;;;;;;;1999.90;999.90;;;;;;;12.15;62.79;102125.09;10455858;28;20377;-62
2023/12/14 15:49:13;;;;;;;1999.90;999.90;;;;;;;11.92;64.13;102125.22;10455970;28;20052;-62
2023/12/14 15:54:16;;;;;;;1999.90;999.90;;;;;;;11.87;62.95;102128.88;10455630;28;20515;-62
2023/12/14 15:59:19;;;;;;;1999.90;999.90;;;;;;;12.23;62.30;102128.25;10455553;28;20538;-62
2023/12/14 16:04:21;;;;;;;1999.90;999.90;;;;;;;12.32;63.07;102134.88;10455714;28;20052;-62
2023/12/14 16:09:23;;;;;;;1999.90;999.90;;;;;;;11.87;64.17;102143.78;10455258;28;20056;-61
2023/12/14 16:14:26;;;;;;;1999.90;999.90;;;;;;;12.26;63.40;102149.13;10454776;28;20128;-61
2023/12/14 16:19:28;;;;;;;1999.90;999.90;;;;;;;12.00;63.56;102162.50;10455267;28;20053;-61
2023/12/14 16:24:31;;;;;;;1999.90;999.90;;;;;;;12.27;63.21;102168.38;10458797;28;20126;-62
2023/12/14 16:29:36;;;;;;;1999.90;999.90;;;;;;;12.09;65.34;102188.41;10461625;28;20049;-62
2023/12/14 16:34:39;;;;;;;1999.90;999.90;;;;;;;12.04;63.85;102190.34;10462559;28;20156;-62
2023/12/14 16:39:41;;;;;;;1999.90;999.90;;;;;;;11.27;65.61;102185.50;10462375;28;20056;-61
2023/12/14 16:44:44;;;;;;;1999.90;999.90;;;;;;;12.14;62.78;102191.69;10461977;28;20056;-62
2023/12/14 16:49:46;;;;;;;1999.90;999.90;;;;;;;12.36;63.34;102198.66;10461914;28;20373;-62
2023/12/14 16:54:49;;;;;;;1999.90;999.90;;;;;;;12.53;62.57;102204.03;10460571;28;20057;-62
2023/12/14 16:59:53;;;;;;;1999.90;999.90;;;;;;;11.94;65.67;102210.03;10461434;28;20041;-61
2023/12/14 17:04:55;;;;;;;1999.90;999.90;;;;;;;11.70;66.28;102210.03;10461238;28;20056;-62
2023/12/14 17:09:58;;;;;;;1999.90;999.90;;;;;;;11.99;65.20;102215.94;10443666;28;20087;-62
2023/12/14 17:15:00;;;;;;;1999.90;999.90;;;;;;;12.45;63.56;102228.00;10461147;28;20132;-61
2023/12/14 17:20:03;;;;;;;1999.90;999.90;;;;;;;12.57;63.26;102234.50;10460576;28;20045;-62
2023/12/14 17:25:06;;;;;;;1999.90;999.90;;;;;;;11.67;66.53;102241.66;10460777;28;20045;-62
2023/12/14 17:30:09;;;;;;;1999.90;999.90;;;;;;;10.84;69.55;102252.59;10459262;28;20052;-62
2023/12/14 17:35:12;;;;;;;1999.90;999.90;;;;;;;11.50;68.77;102261.53;10460115;28;20072;-61
2023/12/14 17:40:14;;;;;;;1999.90;999.90;;;;;;;11.42;70.20;102268.81;10460024;28;20123;-62
2023/12/14 17:45:17;;;;;;;1999.90;999.90;;;;;;;11.36;70.23;102268.19;10459692;28;20072;-61
2023/12/14 17:50:19;;;;;;;1999.90;999.90;;;;;;;12.25;67.28;102264.75;10460079;28;20045;-61
2023/12/14 17:55:22;;;;;;;1999.90;999.90;;;;;;;11.93;67.41;102266.91;10459396;28;20048;-61
2023/12/14 18:00:24;;;;;;;1999.90;999.90;;;;;;;11.45;68.77;102275.72;10459246;28;20052;-61
2023/12/14 18:05:26;;;;;;;1999.90;999.90;;;;;;;11.83;67.82;102271.63;10457753;28;20488;-61
2023/12/14 18:10:30;;;;;;;1999.90;999.90;;;;;;;11.93;67.02;102266.06;10458465;28;20052;-62
2023/12/14 18:15:32;;;;;;;1999.90;999.90;;;;;;;12.18;67.24;102255.41;10458672;28;20049;-61
2023/12/14 18:20:35;;;;;;;1999.90;999.90;;;;;;;12.01;66.48;102266.59;10458353;28;20438;-61
2023/12/14 18:25:37;;;;;;;1999.90;999.90;;;;;;;12.32;66.12;102274.06;10458603;28;20052;-61
2023/12/14 18:30:40;;;;;;;1999.90;999.90;;;;;;;12.09;67.00;102277.66;10458002;28;20049;-62
2023/12/14 18:35:43;;;;;;;1999.90;999.90;;;;;;;12.49;66.47;102272.53;10456623;28;20523;-61
2023/12/14 18:40:45;;;;;;;1999.90;999.90;;;;;;;12.20;66.23;102282.47;10457681;28;20051;-61
2023/12/14 18:45:48;;;;;;;1999.90;999.90;;;;;;;11.44;68.83;102313.34;10456709;28;20502;-62
2023/12/14 18:50:50;;;;;;;1999.90;999.90;;;;;;;12.27;66.71;102310.16;10457902;28;20124;-62
2023/12/14 18:55:53;;;;;;;1999.90;999.90;;;;;;;12.01;65.03;102306.81;10455917;28;20045;-61
2023/12/14 19:00:56;;;;;;;1999.90;999.90;;;;;;;11.70;68.35;102320.22;10457028;28;20166;-62
2023/12/14 19:05:58;;;;;;;1999.90;999.90;;;;;;;12.08;66.68;102325.81;10456943;28;20472;-62
2023/12/14 19:11:01;;;;;;;1999.90;999.90;;;;;;;11.56;68.59;102330.41;10457091;28;20053;-61
2023/12/14 19:16:03;;;;;;;1999.90;999.90;;;;;;;12.21;65.60;102342.78;10456707;28;20052;-61
2023/12/14 19:21:06;;;;;;;1999.90;999.90;;;;;;;10.85;69.10;102351.25;10470636;22;20052;-73
2023/12/14 19:26:19;;;;;;;1999.90;999.90;;;;;;;11.64;69.34;102354.59;10454679;28;20098;-74
2023/12/14 19:31:25;;;;;;;1999.90;999.90;;;;;;;11.65;68.75;102359.78;10455163;28;20077;-74
2023/12/14 19:36:28;;;;;;;1999.90;999.90;;;;;;;11.88;68.29;102372.03;10455092;28;20107;-74
2023/12/14 19:41:31;;;;;;;1999.90;999.90;;;;;;;11.78;68.74;102368.03;10455109;28;20124;-74
2023/12/14 19:46:33;;;;;;;1999.90;999.90;;;;;;;10.64;72.85;102381.63;10455904;28;20411;-74
2023/12/14 19:51:39;;;;;;;1999.90;999.90;;;;;;;11.56;69.99;102393.34;10455984;28;20049;-74
2023/12/14 19:56:45;;;;;;;1999.90;999.90;;;;;;;11.75;69.23;102383.91;10456663;28;20057;-74
2023/12/14 20:01:48;;;;;;;1999.90;999.90;;;;;;;11.43;69.68;102398.16;10462784;28;20049;-74
2023/12/14 20:06:51;;;;;;;1999.90;999.90;;;;;;;11.49;69.88;102397.97;10463679;28;20060;-74
2023/12/14 20:11:54;;;;;;;1999.90;999.90;;;;;;;10.66;71.19;102412.09;10462298;28;20071;-74
2023/12/14 20:16:56;;;;;;;1999.90;999.90;;;;;;;11.20;71.43;102412.09;10463195;28;20591;-74
2023/12/14 20:21:59;;;;;;;1999.90;999.90;;;;;;;11.03;71.44;102407.41;10463245;28;20053;-74
2023/12/14 20:27:01;;;;;;;1999.90;999.90;;;;;;;11.26;71.49;102414.50;10463013;28;20053;-74
2023/12/14 20:32:04;;;;;;;1999.90;999.90;;;;;;;11.53;70.54;102417.91;10462659;28;20054;-74
2023/12/14 20:37:07;;;;;;;1999.90;999.90;;;;;;;11.20;70.63;102425.22;10462469;28;20083;-74
2023/12/14 20:42:09;;;;;;;1999.90;999.90;;;;;;;11.22;71.51;102429.47;10462240;28;20059;-74
2023/12/14 20:47:12;;;;;;;1999.90;999.90;;;;;;;11.19;73.40;102432.19;10462070;28;20491;-74
2023/12/14 20:52:14;;;;;;;1999.90;999.90;;;;;;;11.49;71.06;102442.56;10461961;28;20140;-74
2023/12/14 20:57:16;;;;;;;1999.90;999.90;;;;;;;11.44;72.29;102452.34;10461960;28;20057;-74
2023/12/14 21:02:19;;;;;;;1999.90;999.90;;;;;;;10.91;73.34;102445.34;10461715;28;20132;-74
2023/12/14 21:07:21;;;;;;;1999.90;999.90;;;;;;;11.22;72.99;102447.00;10459737;28;20052;-74
2023/12/14 21:12:24;;;;;;;1999.90;999.90;;;;;;;10.77;72.45;102456.28;10459956;28;20064;-74
2023/12/14 21:17:26;;;;;;;1999.90;999.90;;;;;;;10.72;73.00;102458.19;10459782;28;20053;-74
2023/12/14 21:22:29;;;;;;;1999.90;999.90;;;;;;;11.41;72.94;102465.56;10460908;28;20486;-74
2023/12/14 21:27:44;;;;;;;1999.90;999.90;;;;;;;11.78;70.78;102472.16;10460554;28;20084;-74
2023/12/14 21:32:47;;;;;;;1999.90;999.90;;;;;;;11.49;69.98;102474.88;10460723;28;20106;-75
2023/12/14 21:37:49;;;;;;;1999.90;999.90;;;;;;;11.03;72.39;102480.78;10442689;28;20048;-75
2023/12/14 21:42:52;;;;;;;1999.90;999.90;;;;;;;10.77;70.83;102472.84;10458912;28;20103;-75
2023/12/14 21:47:55;;;;;;;1999.90;999.90;;;;;;;10.85;73.84;102471.78;10459341;28;20048;-75
2023/12/14 21:52:57;;;;;;;1999.90;999.90;;;;;;;11.57;71.75;102461.50;10458367;28;20045;-75
2023/12/14 21:58:00;;;;;;;1999.90;999.90;;;;;;;11.62;71.54;102458.72;10458851;28;20136;-75